Time;durP1;ratioP1;P1;durP2;ratioP2;P2;SDS_P1;SDS_P2;PMS_P1;PMS_P2;Temp;Humidity;BMP_temperature;BMP_pressure;BME280_temperature;BME280_humidity;BME280_pressure;Samples;Min_cycle;Max_cycle;Signal;HPM_P1;HPM_P2
2023/01/28 00:00:47;;;;;;;21.87;21.07;;;22.70;41.90;;;;;;5083723;28;20447;-54
2023/01/28 00:03:14;;;;;;;22.50;21.60;;;22.70;42.50;;;;;;5081887;28;20443;-57
2023/01/28 00:05:41;;;;;;;22.20;21.40;;;22.50;42.00;;;;;;5082289;28;20447;-57
2023/01/28 00:08:09;;;;;;;21.53;20.73;;;22.50;42.20;;;;;;5082911;28;20932;-56
2023/01/28 00:10:38;;;;;;;21.90;21.00;;;22.40;42.80;;;;;;5082695;28;20458;-56
2023/01/28 00:13:06;;;;;;;21.77;20.77;;;22.30;42.30;;;;;;5082440;28;20479;-54
2023/01/28 00:15:33;;;;;;;22.17;21.27;;;22.20;42.40;;;;;;5082006;28;20889;-56
2023/01/28 00:18:00;;;;;;;22.50;21.60;;;22.20;42.50;;;;;;5084180;28;20542;-57
2023/01/28 00:20:27;;;;;;;20.97;20.17;;;22.20;42.60;;;;;;5082191;28;20520;-57
2023/01/28 00:22:54;;;;;;;22.20;21.40;;;22.10;42.60;;;;;;5080935;28;20506;-56
2023/01/28 00:25:20;;;;;;;21.67;20.87;;;22.00;42.60;;;;;;5092546;28;20544;-57
2023/01/28 00:27:47;;;;;;;21.03;20.23;;;22.00;42.70;;;;;;5122228;28;20517;-57
2023/01/28 00:30:16;;;;;;;21.53;20.73;;;22.00;42.80;;;;;;5124182;28;20469;-54
2023/01/28 00:32:42;;;;;;;22.00;21.20;;;22.00;42.80;;;;;;5123187;28;20437;-53
2023/01/28 00:35:10;;;;;;;22.00;21.17;;;21.90;42.80;;;;;;5086503;28;20882;-52
2023/01/28 00:37:37;;;;;;;22.37;21.47;;;21.90;42.80;;;;;;5081749;28;20463;-55
2023/01/28 00:40:04;;;;;;;22.40;21.50;;;21.90;42.90;;;;;;5081061;28;20527;-54
2023/01/28 00:42:31;;;;;;;23.53;22.53;;;21.80;43.00;;;;;;5080556;28;20486;-55
2023/01/28 00:44:58;;;;;;;21.70;20.90;;;21.80;43.00;;;;;;5082954;28;20447;-53
2023/01/28 00:47:26;;;;;;;22.17;21.30;;;21.80;43.20;;;;;;5079006;28;20958;-53
2023/01/28 00:49:52;;;;;;;21.60;20.70;;;21.80;43.20;;;;;;5079768;28;21010;-52
2023/01/28 00:52:19;;;;;;;21.20;20.40;;;21.70;43.20;;;;;;5080560;28;20542;-52
2023/01/28 00:54:46;;;;;;;21.70;20.80;;;21.70;43.20;;;;;;5080292;28;20530;-56
2023/01/28 00:57:13;;;;;;;21.30;20.50;;;21.70;43.30;;;;;;5079679;28;20502;-54
2023/01/28 00:59:40;;;;;;;22.50;21.50;;;21.70;43.30;;;;;;5078855;28;20871;-54
2023/01/28 01:02:12;;;;;;;22.33;21.50;;;21.70;43.40;;;;;;5079634;28;20479;-56
2023/01/28 01:04:40;;;;;;;22.90;22.10;;;21.60;43.30;;;;;;5080265;28;20451;-53
2023/01/28 01:07:07;;;;;;;22.30;21.40;;;21.60;43.40;;;;;;5078676;28;20466;-53
2023/01/28 01:09:34;;;;;;;21.33;20.50;;;21.60;43.40;;;;;;5079836;28;20445;-52
2023/01/28 01:12:01;;;;;;;21.80;21.00;;;21.50;43.40;;;;;;5079551;28;20502;-52
2023/01/28 01:14:28;;;;;;;21.67;20.87;;;21.50;43.40;;;;;;5079646;28;20443;-53
2023/01/28 01:16:54;;;;;;;22.17;21.23;;;21.50;43.50;;;;;;5079142;28;20474;-52
2023/01/28 01:19:21;;;;;;;22.50;21.60;;;21.50;43.50;;;;;;5081041;28;20481;-53
2023/01/28 01:21:50;;;;;;;22.30;21.30;;;21.50;43.60;;;;;;5078506;28;20471;-52
2023/01/28 01:24:17;;;;;;;22.00;21.10;;;21.40;43.50;;;;;;5096705;28;20469;-53
2023/01/28 01:26:43;;;;;;;22.20;21.30;;;21.40;43.50;;;;;;5119031;28;20467;-54
2023/01/28 01:29:10;;;;;;;21.63;20.83;;;21.40;43.60;;;;;;5119025;28;20560;-56
2023/01/28 01:31:37;;;;;;;21.40;20.60;;;21.40;43.60;;;;;;5119777;28;20508;-54
2023/01/28 01:34:04;;;;;;;22.47;21.57;;;21.40;43.60;;;;;;5104942;28;20945;-54
2023/01/28 01:36:31;;;;;;;21.30;20.60;;;21.40;43.70;;;;;;5078436;28;20499;-53
2023/01/28 01:38:59;;;;;;;21.60;20.80;;;21.30;43.60;;;;;;5078084;28;20503;-55
2023/01/28 01:41:28;;;;;;;22.40;21.60;;;21.30;43.60;;;;;;5078156;28;20443;-57
2023/01/28 01:43:57;;;;;;;21.00;20.30;;;21.30;43.60;;;;;;5077995;28;20457;-52
2023/01/28 01:46:32;;;;;;;20.77;20.07;;;21.30;43.70;;;;;;5078876;28;20447;-52
2023/01/28 01:49:08;;;;;;;21.70;20.90;;;21.30;43.70;;;;;;5078133;28;20482;-55
2023/01/28 01:51:37;;;;;;;21.60;20.70;;;21.30;43.80;;;;;;5079131;28;20854;-55
2023/01/28 01:54:06;;;;;;;22.30;21.30;;;21.30;43.80;;;;;;5102865;28;20445;-52
2023/01/28 01:56:36;;;;;;;21.23;20.43;;;21.20;43.80;;;;;;5119030;28;20461;-52
2023/01/28 01:59:04;;;;;;;21.37;20.57;;;21.20;43.80;;;;;;5119694;28;20452;-51
2023/01/28 02:01:32;;;;;;;21.27;20.47;;;21.20;43.90;;;;;;5118635;28;20442;-51
2023/01/28 02:04:05;;;;;;;20.97;20.17;;;21.20;43.90;;;;;;5084886;28;20525;-53
2023/01/28 02:06:33;;;;;;;21.30;20.50;;;21.20;43.90;;;;;;5077841;28;20550;-54
2023/01/28 02:09:00;;;;;;;22.10;21.20;;;21.20;44.00;;;;;;5076792;28;20992;-54
2023/01/28 02:11:32;;;;;;;21.63;20.83;;;21.20;44.00;;;;;;5079611;28;20457;-53
2023/01/28 02:14:02;;;;;;;22.00;21.10;;;21.20;44.00;;;;;;5120016;28;20450;-52
2023/01/28 02:16:30;;;;;;;22.67;21.87;;;21.10;43.90;;;;;;5121778;28;20485;-54
2023/01/28 02:18:57;;;;;;;21.93;21.10;;;21.10;43.90;;;;;;5121517;28;20524;-55
2023/01/28 02:21:51;;;;;;;21.40;20.50;;;21.10;43.90;;;;;;5122664;28;20447;-56
2023/01/28 02:24:39;;;;;;;21.40;20.60;;;21.10;44.00;;;;;;5101924;28;20445;-55
2023/01/28 02:27:22;;;;;;;21.43;20.63;;;21.10;44.00;;;;;;5123452;28;20823;-51
2023/01/28 02:29:56;;;;;;;21.50;20.70;;;21.10;44.10;;;;;;5123224;28;20445;-52
2023/01/28 02:32:30;;;;;;;21.50;20.73;;;21.00;44.10;;;;;;5121904;28;20437;-52
2023/01/28 02:35:03;;;;;;;22.17;21.37;;;21.10;44.20;;;;;;5124407;28;20521;-53
2023/01/28 02:37:37;;;;;;;21.90;21.10;;;21.00;44.10;;;;;;5123670;28;20461;-53
2023/01/28 02:40:09;;;;;;;21.83;21.03;;;21.00;44.10;;;;;;5123406;28;20512;-53
2023/01/28 02:42:39;;;;;;;22.20;21.10;;;21.00;44.10;;;;;;5120985;28;20478;-51
2023/01/28 02:45:16;;;;;;;22.50;21.60;;;21.00;44.20;;;;;;5121970;28;20532;-56
2023/01/28 02:47:56;;;;;;;22.00;21.20;;;21.00;44.20;;;;;;5121715;28;20488;-54
2023/01/28 02:50:26;;;;;;;22.20;21.40;;;21.00;44.30;;;;;;5104303;28;20431;-53
2023/01/28 02:55:54;;;;;;;22.90;22.10;;;20.90;44.30;;;;;;5122059;28;20449;-52
2023/01/28 02:58:30;;;;;;;22.90;22.07;;;20.90;44.30;;;;;;5121573;28;20463;-53
2023/01/28 03:01:07;;;;;;;22.60;21.70;;;20.90;44.40;;;;;;5082389;28;20447;-53
2023/01/28 03:03:45;;;;;;;22.60;21.70;;;20.90;44.40;;;;;;5081984;28;20443;-51
2023/01/28 03:06:17;;;;;;;22.90;22.10;;;20.90;44.40;;;;;;5081223;28;20494;-55
2023/01/28 03:36:50;;;;;;;22.60;21.80;;;20.90;44.60;;;;;;5080370;28;20535;-53
2023/01/28 03:39:18;;;;;;;22.60;21.80;;;20.80;45.00;;;;;;5080564;28;20435;-54
2023/01/28 03:41:56;;;;;;;22.67;21.77;;;20.90;44.60;;;;;;5079679;28;20836;-55
2023/01/28 03:47:10;;;;;;;22.43;21.63;;;20.90;44.60;;;;;;5118815;28;20944;-52
2023/01/28 03:49:39;;;;;;;23.00;22.20;;;20.80;44.50;;;;;;5120481;28;20526;-56
2023/01/28 03:52:06;;;;;;;22.20;21.40;;;20.80;44.60;;;;;;5121003;28;20450;-52
2023/01/28 03:54:33;;;;;;;23.23;22.43;;;20.80;44.60;;;;;;5120521;28;20548;-51
2023/01/28 03:57:00;;;;;;;22.73;21.93;;;20.80;44.60;;;;;;5085206;28;20546;-52
2023/01/28 03:59:26;;;;;;;24.10;23.20;;;20.80;44.60;;;;;;5080714;28;20515;-53
2023/01/28 04:01:54;;;;;;;22.63;21.83;;;20.80;44.60;;;;;;5080288;28;20522;-52
2023/01/28 04:04:23;;;;;;;23.50;22.57;;;20.80;44.60;;;;;;5079906;28;20450;-53
2023/01/28 04:06:52;;;;;;;22.80;22.00;;;20.80;44.60;;;;;;5111342;28;20465;-54
2023/01/28 04:09:19;;;;;;;22.83;22.00;;;20.80;44.50;;;;;;5120062;28;20474;-52
2023/01/28 04:11:46;;;;;;;21.87;21.07;;;20.80;44.60;;;;;;5119759;28;20522;-56
2023/01/28 04:14:14;;;;;;;22.43;21.50;;;20.80;44.50;;;;;;5120491;28;20447;-52
2023/01/28 04:16:40;;;;;;;21.90;21.10;;;20.80;44.50;;;;;;5119555;28;20513;-56
2023/01/28 04:19:08;;;;;;;21.80;20.90;;;20.80;44.50;;;;;;5119445;28;20437;-53
2023/01/28 04:21:35;;;;;;;21.97;21.07;;;20.80;44.50;;;;;;5119610;28;20433;-52
2023/01/28 04:24:03;;;;;;;22.23;21.43;;;20.80;44.40;;;;;;5119962;28;20965;-54
2023/01/28 04:26:29;;;;;;;22.97;22.07;;;20.80;44.50;;;;;;5118051;28;20462;-53
2023/01/28 04:28:56;;;;;;;22.53;21.73;;;20.80;44.50;;;;;;5119516;28;20568;-56
2023/01/28 04:31:23;;;;;;;22.40;21.60;;;20.80;44.50;;;;;;5119532;28;20473;-52
2023/01/28 04:33:50;;;;;;;22.10;21.30;;;20.80;44.50;;;;;;5117769;28;20445;-51
2023/01/28 04:36:17;;;;;;;23.47;22.57;;;20.80;44.50;;;;;;5119092;28;20442;-51
2023/01/28 04:38:44;;;;;;;23.23;22.33;;;20.80;44.50;;;;;;5118730;28;20460;-53
2023/01/28 04:41:12;;;;;;;22.90;22.00;;;20.80;44.50;;;;;;5119256;28;20887;-53
2023/01/28 04:43:39;;;;;;;22.80;22.00;;;20.80;45.00;;;;;;5117992;28;20463;-55
2023/01/28 04:46:06;;;;;;;23.10;22.20;;;20.80;44.50;;;;;;5119779;28;20477;-52
2023/01/28 04:48:33;;;;;;;23.23;22.33;;;20.80;44.50;;;;;;5119326;28;20862;-52
2023/01/28 04:51:00;;;;;;;23.67;22.77;;;20.80;44.50;;;;;;5119112;28;20858;-55
2023/01/28 04:53:27;;;;;;;22.70;21.80;;;20.80;44.60;;;;;;5118644;28;20448;-52
2023/01/28 04:55:54;;;;;;;23.03;22.23;;;20.70;44.40;;;;;;5078975;28;20475;-54
2023/01/28 04:58:22;;;;;;;24.10;23.20;;;20.80;44.60;;;;;;5080469;28;20518;-54
2023/01/28 05:00:54;;;;;;;24.23;23.23;;;20.70;44.50;;;;;;5078702;28;20454;-52
2023/01/28 05:03:21;;;;;;;24.97;23.97;;;20.70;44.50;;;;;;5079597;28;20483;-53
2023/01/28 05:05:48;;;;;;;23.40;22.50;;;20.70;44.50;;;;;;5118092;28;20450;-51
2023/01/28 05:08:14;;;;;;;23.60;22.70;;;20.70;44.50;;;;;;5118646;28;20564;-56
2023/01/28 05:10:41;;;;;;;23.80;22.90;;;20.70;44.50;;;;;;5119346;28;20480;-51
2023/01/28 05:13:08;;;;;;;23.50;22.60;;;20.70;44.50;;;;;;5120150;28;20505;-53
2023/01/28 05:15:36;;;;;;;23.60;22.80;;;20.70;44.50;;;;;;5117971;28;20442;-52
2023/01/28 05:18:03;;;;;;;24.30;23.30;;;20.70;44.60;;;;;;5115222;28;20560;-51
2023/01/28 05:20:30;;;;;;;25.57;24.67;;;20.70;44.60;;;;;;5112021;28;20467;-54
2023/01/28 05:22:57;;;;;;;24.27;23.37;;;20.70;44.60;;;;;;5112161;28;20999;-51
2023/01/28 05:25:23;;;;;;;24.60;23.70;;;20.70;44.60;;;;;;5080998;28;20533;-50
2023/01/28 05:27:51;;;;;;;24.70;23.80;;;20.70;44.60;;;;;;5071574;28;21010;-51
2023/01/28 05:30:18;;;;;;;24.80;23.90;;;20.70;44.60;;;;;;5071334;28;20479;-52
2023/01/28 05:32:46;;;;;;;24.70;23.80;;;20.70;44.60;;;;;;5071655;28;20453;-52
2023/01/28 05:35:13;;;;;;;24.87;23.87;;;20.70;44.60;;;;;;5074138;28;20963;-51
2023/01/28 05:37:40;;;;;;;24.30;23.30;;;20.70;44.60;;;;;;5071494;28;20976;-50
2023/01/28 05:40:08;;;;;;;23.10;22.30;;;20.70;44.60;;;;;;5071327;28;20949;-52
2023/01/28 05:42:34;;;;;;;23.70;22.80;;;20.70;44.60;;;;;;5071482;28;20808;-52
2023/01/28 05:45:01;;;;;;;23.70;22.90;;;20.70;44.60;;;;;;5102384;28;20524;-51
2023/01/28 05:47:28;;;;;;;24.50;23.60;;;20.70;44.60;;;;;;5116304;28;20466;-53
2023/01/28 05:49:56;;;;;;;24.83;23.93;;;20.70;44.60;;;;;;5115910;28;20568;-52
2023/01/28 05:52:23;;;;;;;23.87;22.97;;;20.70;44.60;;;;;;5116335;28;20447;-52
2023/01/28 05:54:50;;;;;;;24.47;23.57;;;20.70;44.60;;;;;;5088945;28;20527;-51
2023/01/28 05:57:17;;;;;;;24.33;23.43;;;20.60;44.50;;;;;;5075412;28;20553;-52
2023/01/28 05:59:44;;;;;;;25.03;24.03;;;20.70;44.60;;;;;;5075446;28;20530;-51
2023/01/28 06:02:10;;;;;;;24.73;23.83;;;20.70;44.60;;;;;;5075381;28;20447;-52
2023/01/28 06:04:37;;;;;;;23.50;22.50;;;20.60;44.50;;;;;;5097753;28;20441;-52
2023/01/28 06:07:06;;;;;;;23.93;23.03;;;20.70;44.60;;;;;;5115813;28;20469;-50
2023/01/28 06:09:33;;;;;;;24.50;23.60;;;20.70;44.60;;;;;;5114053;28;20487;-51
2023/01/28 06:11:59;;;;;;;22.97;22.17;;;20.70;44.60;;;;;;5075250;28;20530;-51
2023/01/28 06:14:26;;;;;;;24.00;23.10;;;20.60;44.50;;;;;;5094094;28;20549;-51
2023/01/28 06:16:53;;;;;;;24.10;23.20;;;20.70;44.60;;;;;;5115535;28;20888;-52
2023/01/28 06:19:20;;;;;;;26.30;25.30;;;20.70;44.60;;;;;;5115556;28;20532;-51
2023/01/28 06:21:47;;;;;;;25.27;24.37;;;20.70;44.60;;;;;;5115595;28;20453;-52
2023/01/28 06:24:15;;;;;;;25.17;23.90;;;20.70;44.60;;;;;;5100351;28;20446;-54
2023/01/28 06:26:41;;;;;;;24.33;23.43;;;20.70;44.60;;;;;;5074889;28;20458;-53
2023/01/28 06:29:08;;;;;;;24.17;23.27;;;20.70;44.60;;;;;;5074592;28;20569;-51
2023/01/28 06:31:35;;;;;;;24.03;23.13;;;20.70;44.60;;;;;;5074738;28;20489;-52
2023/01/28 06:34:03;;;;;;;24.80;23.80;;;20.70;44.60;;;;;;5085692;28;20536;-51
2023/01/28 06:36:30;;;;;;;24.93;23.93;;;20.70;44.60;;;;;;5115246;28;20465;-51
2023/01/28 06:38:57;;;;;;;23.90;23.00;;;20.70;44.60;;;;;;5115214;28;20540;-51
2023/01/28 06:41:25;;;;;;;24.33;23.33;;;20.60;44.50;;;;;;5115414;28;20865;-54
2023/01/28 06:43:52;;;;;;;24.63;23.63;;;20.60;44.50;;;;;;5078847;28;20530;-52
2023/01/28 06:46:19;;;;;;;23.33;22.40;;;20.60;44.50;;;;;;5074497;28;20443;-52
2023/01/28 06:48:46;;;;;;;24.03;22.93;;;20.60;44.50;;;;;;5074295;28;20451;-55
2023/01/28 06:51:12;;;;;;;25.20;24.20;;;20.60;44.60;;;;;;5074408;28;20980;-50
2023/01/28 06:53:39;;;;;;;24.73;23.73;;;20.60;44.60;;;;;;5096111;28;20449;-52
2023/01/28 06:56:07;;;;;;;24.17;23.10;;;20.60;44.60;;;;;;5078412;28;20526;-55
2023/01/28 06:58:35;;;;;;;24.63;23.63;;;20.60;44.60;;;;;;5074653;28;20447;-51
2023/01/28 07:01:02;;;;;;;25.60;24.60;;;20.60;44.50;;;;;;5074123;28;20446;-53
2023/01/28 07:03:29;;;;;;;23.80;22.90;;;20.60;44.50;;;;;;5082668;28;20473;-51
2023/01/28 07:05:56;;;;;;;23.83;22.93;;;20.60;44.50;;;;;;5074269;28;20888;-52
2023/01/28 07:08:23;;;;;;;24.20;23.30;;;20.60;44.50;;;;;;5074097;28;20550;-51
2023/01/28 07:10:50;;;;;;;24.70;23.70;;;20.60;44.60;;;;;;5073815;28;20882;-51
2023/01/28 07:13:16;;;;;;;24.47;23.50;;;20.60;44.50;;;;;;5082603;28;20550;-52
2023/01/28 07:15:47;;;;;;;24.40;23.20;;;20.70;44.60;;;;;;5074141;28;20443;-50
2023/01/28 07:18:17;;;;;;;25.00;23.80;;;20.70;44.70;;;;;;5073925;28;20471;-50
2023/01/28 07:20:44;;;;;;;25.23;24.23;;;20.80;45.50;;;;;;5073741;28;20500;-50
2023/01/28 07:23:11;;;;;;;26.10;25.10;;;20.90;45.20;;;;;;5096014;28;20438;-50
2023/01/28 07:25:38;;;;;;;26.03;25.03;;;20.90;44.80;;;;;;5114620;28;20536;-52
2023/01/28 07:28:05;;;;;;;26.23;25.23;;;21.00;45.10;;;;;;5114538;28;20799;-50
2023/01/28 07:30:32;;;;;;;26.03;25.03;;;21.10;44.80;;;;;;5114111;28;20485;-50
2023/01/28 07:33:00;;;;;;;25.63;24.70;;;21.20;44.80;;;;;;5096351;28;20444;-53
2023/01/28 07:35:28;;;;;;;26.13;25.23;;;21.20;44.60;;;;;;5074161;28;20455;-57
2023/01/28 07:37:56;;;;;;;26.00;24.90;;;21.30;45.00;;;;;;5075007;28;20463;-55
2023/01/28 07:40:24;;;;;;;25.80;24.67;;;21.40;44.60;;;;;;5074632;28;20539;-53
2023/01/28 07:42:51;;;;;;;26.67;25.67;;;21.40;44.50;;;;;;5089959;28;20515;-55
2023/01/28 07:45:18;;;;;;;26.37;25.37;;;21.40;44.30;;;;;;5114975;28;20441;-52
2023/01/28 07:47:45;;;;;;;27.43;26.43;;;21.40;44.30;;;;;;5113943;28;20548;-58
2023/01/28 07:50:15;;;;;;;26.37;25.37;;;21.50;44.20;;;;;;5113721;28;20489;-55
2023/01/28 07:52:44;;;;;;;27.20;26.17;;;21.50;44.10;;;;;;5104854;28;20447;-54
2023/01/28 07:55:14;;;;;;;27.30;26.30;;;21.50;44.40;;;;;;5113907;28;20948;-53
2023/01/28 07:57:48;;;;;;;26.13;25.03;;;21.50;44.40;;;;;;5113837;28;20461;-52
2023/01/28 08:00:16;;;;;;;25.70;24.60;;;21.60;44.20;;;;;;5113693;28;20429;-50
2023/01/28 08:02:46;;;;;;;26.80;25.80;;;21.60;44.10;;;;;;5101934;28;20448;-51
2023/01/28 08:05:17;;;;;;;25.27;24.27;;;21.50;43.90;;;;;;5073141;28;20450;-51
2023/01/28 08:07:44;;;;;;;26.33;25.30;;;21.60;44.00;;;;;;5072466;28;20536;-50
2023/01/28 08:10:12;;;;;;;25.43;24.47;;;21.60;43.90;;;;;;5072667;28;20474;-51
2023/01/28 08:12:40;;;;;;;25.50;24.60;;;21.60;43.90;;;;;;5078912;28;20529;-53
2023/01/28 08:15:08;;;;;;;25.27;24.37;;;21.60;43.80;;;;;;5072847;28;20448;-58
2023/01/28 08:17:35;;;;;;;26.37;25.37;;;21.70;44.50;;;;;;5072801;28;20996;-55
2023/01/28 08:20:02;;;;;;;26.77;25.77;;;21.80;44.40;;;;;;5072693;28;20447;-52
2023/01/28 08:22:30;;;;;;;27.60;26.60;;;21.80;44.20;;;;;;5107713;28;20453;-55
2023/01/28 08:24:57;;;;;;;26.53;25.43;;;21.80;43.90;;;;;;5113462;28;20882;-53
2023/01/28 08:27:24;;;;;;;26.50;25.50;;;21.80;43.80;;;;;;5113405;28;20535;-51
2023/01/28 08:29:51;;;;;;;25.20;24.30;;;21.80;43.60;;;;;;5113244;28;20496;-56
2023/01/28 08:32:18;;;;;;;26.17;25.23;;;21.80;43.50;;;;;;5081183;28;20453;-55
2023/01/28 08:34:45;;;;;;;25.80;24.90;;;21.90;43.70;;;;;;5072903;28;20830;-51
2023/01/28 08:37:11;;;;;;;26.77;25.77;;;22.00;43.70;;;;;;5072398;28;20550;-53
2023/01/28 08:39:39;;;;;;;24.97;24.07;;;22.00;43.60;;;;;;5072544;28;20443;-53
2023/01/28 08:42:07;;;;;;;25.43;24.53;;;22.00;43.50;;;;;;5100421;28;20528;-58
2023/01/28 08:44:34;;;;;;;25.53;24.53;;;22.10;43.60;;;;;;5113588;28;20445;-55
2023/01/28 08:47:01;;;;;;;25.30;24.40;;;22.10;43.60;;;;;;5113105;28;20458;-55
2023/01/28 08:49:27;;;;;;;25.77;24.77;;;22.10;43.80;;;;;;5101056;28;20566;-53
2023/01/28 08:51:55;;;;;;;26.37;25.23;;;22.10;43.30;;;;;;5072435;28;20876;-55
2023/01/28 08:54:22;;;;;;;27.13;26.13;;;22.10;43.30;;;;;;5072222;28;20820;-52
2023/01/28 08:56:50;;;;;;;25.40;24.50;;;22.00;43.10;;;;;;5074766;28;20477;-57
2023/01/28 08:59:17;;;;;;;25.50;24.50;;;22.00;43.10;;;;;;5084427;28;20441;-52
2023/01/28 09:01:44;;;;;;;26.00;25.00;;;22.10;43.20;;;;;;5092686;28;20454;-53
2023/01/28 09:04:11;;;;;;;25.93;24.93;;;22.00;43.00;;;;;;5079171;28;20446;-56
2023/01/28 09:06:38;;;;;;;25.67;24.67;;;22.10;43.60;;;;;;5072182;28;20463;-59
2023/01/28 09:09:05;;;;;;;25.20;24.30;;;22.20;43.70;;;;;;5080654;28;20477;-58
2023/01/28 09:11:32;;;;;;;25.93;24.93;;;22.20;43.70;;;;;;5112698;28;20559;-56
2023/01/28 09:14:00;;;;;;;25.40;24.50;;;22.30;44.10;;;;;;5112739;28;20445;-55
2023/01/28 09:16:27;;;;;;;25.20;24.23;;;22.30;43.80;;;;;;5112547;28;20549;-59
2023/01/28 09:18:54;;;;;;;25.30;24.30;;;22.30;43.80;;;;;;5109139;28;20967;-51
2023/01/28 09:21:21;;;;;;;25.23;24.23;;;22.40;43.50;;;;;;5111575;28;20537;-52
2023/01/28 09:23:49;;;;;;;26.80;25.80;;;22.40;43.20;;;;;;5112359;28;20452;-54
2023/01/28 09:26:16;;;;;;;26.03;25.03;;;22.40;43.30;;;;;;5112329;28;20450;-51
2023/01/28 09:28:42;;;;;;;26.00;25.00;;;22.40;43.10;;;;;;5082862;28;20536;-56
2023/01/28 09:31:12;;;;;;;27.23;26.23;;;22.50;43.20;;;;;;5071641;28;20566;-53
2023/01/28 09:33:40;;;;;;;27.40;26.13;;;22.50;43.20;;;;;;5072477;28;20451;-50
2023/01/28 09:36:10;;;;;;;26.13;25.03;;;22.50;43.10;;;;;;5085848;28;20962;-49
2023/01/28 09:38:37;;;;;;;26.20;25.10;;;22.50;43.10;;;;;;5113787;28;20810;-50
2023/01/28 09:41:20;;;;;;;26.13;25.13;;;22.50;43.00;;;;;;5114289;28;20540;-50
2023/01/28 09:44:06;;;;;;;25.70;24.70;;;22.50;42.90;;;;;;5114816;28;20441;-51
2023/01/28 09:46:36;;;;;;;25.63;24.63;;;22.60;43.00;;;;;;5093385;28;20546;-50
2023/01/28 09:49:12;;;;;;;27.00;26.00;;;22.60;42.90;;;;;;5071913;28;20447;-50
2023/01/28 09:51:42;;;;;;;26.83;25.83;;;22.60;42.90;;;;;;5071603;28;20564;-53
2023/01/28 09:54:21;;;;;;;27.07;26.07;;;22.50;42.90;;;;;;5071590;28;20560;-51
2023/01/28 09:56:51;;;;;;;27.37;26.37;;;22.50;42.80;;;;;;5095021;28;20462;-48
2023/01/28 09:59:20;;;;;;;26.13;25.13;;;22.50;42.90;;;;;;5112275;28;20444;-49
2023/01/28 10:01:54;;;;;;;26.10;25.10;;;22.40;42.90;;;;;;5112274;28;20935;-50
2023/01/28 10:04:38;;;;;;;26.30;25.30;;;22.40;42.90;;;;;;5112315;28;20459;-56
2023/01/28 10:07:21;;;;;;;26.20;25.20;;;22.30;43.10;;;;;;5083715;28;20467;-52
2023/01/28 10:09:53;;;;;;;26.37;25.47;;;22.30;43.00;;;;;;5071473;28;20442;-53
2023/01/28 10:12:38;;;;;;;27.00;26.00;;;22.20;43.70;;;;;;5071560;28;20447;-51
2023/01/28 10:15:30;;;;;;;27.07;26.07;;;22.10;43.20;;;;;;5071465;28;20536;-52
2023/01/28 10:18:04;;;;;;;27.30;26.20;;;22.10;43.30;;;;;;5091357;28;20979;-50
2023/01/28 10:20:36;;;;;;;26.20;25.30;;;22.20;43.50;;;;;;5091372;28;20434;-50
2023/01/28 10:23:06;;;;;;;26.90;25.60;;;22.20;43.60;;;;;;5091393;28;20449;-52
2023/01/28 10:25:34;;;;;;;26.53;25.53;;;22.20;43.70;;;;;;5091274;28;20449;-53
2023/01/28 10:28:02;;;;;;;26.20;25.10;;;22.20;43.70;;;;;;5071389;28;20467;-49
2023/01/28 10:30:32;;;;;;;25.90;24.90;;;22.20;43.80;;;;;;5070940;28;20481;-50
2023/01/28 10:33:04;;;;;;;24.70;23.80;;;22.20;43.80;;;;;;5074795;28;20443;-51
2023/01/28 10:35:37;;;;;;;24.53;23.63;;;22.10;43.40;;;;;;5075451;28;20446;-50
2023/01/28 10:38:07;;;;;;;25.53;24.60;;;22.20;43.70;;;;;;5074916;28;20472;-50
2023/01/28 10:40:34;;;;;;;24.50;23.57;;;22.10;44.20;;;;;;5074552;28;20446;-49
2023/01/28 10:43:01;;;;;;;24.80;23.70;;;22.20;43.80;;;;;;5074833;28;20451;-48
2023/01/28 10:45:31;;;;;;;26.20;25.20;;;22.20;43.80;;;;;;5084212;28;20439;-47
2023/01/28 10:48:07;;;;;;;25.57;24.57;;;22.20;43.80;;;;;;5074583;28;21006;-47
2023/01/28 10:50:34;;;;;;;24.40;23.50;;;22.20;43.80;;;;;;5074364;28;20517;-48
2023/01/28 10:53:04;;;;;;;25.00;24.00;;;22.20;43.90;;;;;;5074565;28;20870;-50
2023/01/28 10:55:35;;;;;;;25.93;24.83;;;22.20;43.90;;;;;;5097550;28;20446;-48
2023/01/28 10:58:04;;;;;;;25.47;24.37;;;22.20;43.90;;;;;;5115048;28;20480;-51
2023/01/28 11:00:35;;;;;;;24.50;23.60;;;22.20;43.90;;;;;;5115159;28;20436;-60
2023/01/28 11:03:03;;;;;;;25.03;24.07;;;22.30;44.10;;;;;;5115004;28;20451;-57
2023/01/28 11:05:31;;;;;;;25.53;24.53;;;22.20;43.80;;;;;;5114979;28;20447;-54
2023/01/28 11:08:12;;;;;;;24.67;23.77;;;22.20;43.60;;;;;;5097880;28;20466;-52
2023/01/28 11:10:39;;;;;;;26.00;24.70;;;22.30;43.60;;;;;;5094104;28;20477;-53
2023/01/28 11:13:15;;;;;;;24.70;23.80;;;22.40;43.50;;;;;;5114824;28;20859;-55
2023/01/28 11:15:47;;;;;;;25.57;24.57;;;22.40;43.40;;;;;;5114757;28;20880;-53
2023/01/28 11:18:18;;;;;;;25.47;24.47;;;22.50;43.50;;;;;;5115253;28;20475;-55
2023/01/28 11:20:51;;;;;;;25.80;24.80;;;22.50;43.30;;;;;;5076837;28;20445;-54
2023/01/28 11:23:22;;;;;;;25.80;24.80;;;22.60;43.20;;;;;;5074345;28;20444;-52
2023/01/28 11:25:59;;;;;;;24.90;23.90;;;22.60;43.10;;;;;;5074133;28;20443;-51
2023/01/28 11:28:26;;;;;;;26.10;25.10;;;22.70;43.50;;;;;;5073932;28;20545;-56
2023/01/28 11:30:58;;;;;;;25.37;24.43;;;22.70;43.60;;;;;;5101982;28;20983;-52
2023/01/28 11:33:31;;;;;;;24.40;23.50;;;22.80;43.30;;;;;;5081143;28;20454;-56
2023/01/28 11:36:04;;;;;;;25.13;24.13;;;22.80;43.10;;;;;;5074031;28;20444;-51
2023/01/28 11:38:31;;;;;;;24.67;23.77;;;22.80;43.00;;;;;;5073801;28;20467;-51
2023/01/28 11:41:00;;;;;;;24.70;23.70;;;22.80;42.90;;;;;;5105154;28;20939;-53
2023/01/28 11:43:28;;;;;;;25.20;24.20;;;22.90;42.80;;;;;;5113477;28;20817;-50
2023/01/28 11:46:19;;;;;;;25.30;24.30;;;22.90;42.70;;;;;;5114647;28;20448;-53
2023/01/28 11:48:59;;;;;;;25.80;24.80;;;22.90;42.70;;;;;;5114145;28;20888;-52
2023/01/28 11:51:36;;;;;;;25.90;24.90;;;23.00;42.60;;;;;;5103939;28;20482;-55
2023/01/28 11:54:12;;;;;;;25.60;24.60;;;23.00;42.60;;;;;;5073366;28;20443;-55
2023/01/28 11:57:01;;;;;;;24.10;23.20;;;23.00;42.60;;;;;;5073488;28;20467;-51
2023/01/28 11:59:50;;;;;;;26.53;25.07;;;23.00;42.40;;;;;;5072941;28;20542;-54
2023/01/28 12:02:30;;;;;;;25.07;24.17;;;23.10;42.50;;;;;;5070250;28;20839;-52
2023/01/28 12:05:15;;;;;;;26.47;25.37;;;23.10;42.50;;;;;;5100454;28;20875;-52
2023/01/28 12:07:50;;;;;;;25.60;24.50;;;23.00;42.40;;;;;;5113793;28;20473;-55
2023/01/28 12:10:24;;;;;;;26.17;25.10;;;23.00;42.80;;;;;;5113469;28;20846;-52
2023/01/28 12:13:14;;;;;;;25.40;24.40;;;22.90;43.20;;;;;;5113936;28;20441;-53
2023/01/28 12:16:23;;;;;;;26.90;25.90;;;23.00;42.90;;;;;;5097121;28;20440;-55
2023/01/28 12:19:13;;;;;;;25.50;24.53;;;23.10;42.90;;;;;;5050621;28;20538;-59
2023/01/28 12:21:58;;;;;;;26.37;25.17;;;23.20;43.50;;;;;;5073812;28;20439;-55
2023/01/28 12:24:39;;;;;;;25.90;24.90;;;23.20;42.90;;;;;;5073491;28;20530;-60
2023/01/28 12:27:15;;;;;;;26.77;25.53;;;23.30;42.90;;;;;;5083824;28;20878;-53
2023/01/28 12:29:51;;;;;;;26.13;25.13;;;23.30;42.90;;;;;;5113444;28;20484;-64
2023/01/28 12:32:38;;;;;;;26.37;25.37;;;23.30;42.80;;;;;;5100190;28;20467;-61
2023/01/28 12:35:42;;;;;;;24.92;23.98;;;23.30;42.70;;;;;;5072172;28;20982;-55
2023/01/28 12:38:15;;;;;;;26.73;25.73;;;23.30;42.80;;;;;;5073963;28;20216;-57
2023/01/28 12:40:58;;;;;;;26.00;25.00;;;23.40;42.80;;;;;;5110653;28;20947;-57
2023/01/28 12:43:37;;;;;;;26.90;25.80;;;23.40;42.80;;;;;;5113779;28;20469;-56
2023/01/28 12:46:12;;;;;;;28.00;26.80;;;23.40;42.40;;;;;;5113579;28;20443;-58
2023/01/28 12:48:45;;;;;;;26.50;25.50;;;23.30;42.10;;;;;;5113025;28;20505;-61
2023/01/28 12:51:15;;;;;;;26.00;24.90;;;23.20;42.30;;;;;;5104555;28;20471;-51
2023/01/28 12:53:49;;;;;;;26.60;25.60;;;23.30;42.90;;;;;;5072223;28;21000;-54
2023/01/28 12:56:19;;;;;;;26.40;25.40;;;23.20;43.30;;;;;;5072271;28;20895;-57
2023/01/28 12:58:53;;;;;;;25.57;24.57;;;23.20;42.70;;;;;;5072062;28;20447;-55
2023/01/28 13:01:25;;;;;;;24.37;23.43;;;23.20;42.60;;;;;;5081896;28;20530;-55
2023/01/28 13:03:58;;;;;;;25.07;24.10;;;23.20;42.30;;;;;;5072625;28;20455;-59
2023/01/28 13:06:30;;;;;;;23.90;23.00;;;23.20;42.10;;;;;;5072006;28;20449;-55
2023/01/28 13:09:03;;;;;;;24.17;23.17;;;23.20;42.30;;;;;;5072020;28;20965;-60
2023/01/28 13:11:36;;;;;;;23.83;22.90;;;23.10;42.00;;;;;;5091968;28;20510;-55
2023/01/28 13:14:04;;;;;;;26.17;25.07;;;23.00;42.00;;;;;;5092349;28;20438;-59
2023/01/28 13:16:31;;;;;;;24.70;23.70;;;23.00;42.00;;;;;;5092229;28;20432;-52